Time;durP1;ratioP1;P1;durP2;ratioP2;P2;SDS_P1;SDS_P2;PMS_P1;PMS_P2;Temp;Humidity;BMP_temperature;BMP_pressure;BME280_temperature;BME280_humidity;BME280_pressure;Samples;Min_cycle;Max_cycle;Signal;HPM_P1;HPM_P2
2024/01/06 00:02:27;;;;;;;18.98;13.50;;;;;;;9.48;43.41;97314.06;10327048;28;20037;-49
2024/01/06 00:07:26;;;;;;;23.42;15.77;;;;;;;9.56;43.30;97339.97;10326523;28;20038;-49
2024/01/06 00:12:25;;;;;;;21.00;12.40;;;;;;;9.45;44.19;97336.53;10326863;28;20017;-50
2024/01/06 00:17:24;;;;;;;25.85;17.88;;;;;;;9.19;43.50;97296.03;10327740;28;20064;-47
2024/01/06 00:22:23;;;;;;;16.20;11.48;;;;;;;8.72;43.82;97253.00;10324292;28;20052;-48
2024/01/06 00:27:22;;;;;;;11.52;8.55;;;;;;;9.27;42.07;97335.69;10326418;28;20121;-50
2024/01/06 00:32:21;;;;;;;6.80;6.20;;;;;;;9.38;39.99;97314.13;10328126;28;20048;-50
2024/01/06 00:37:20;;;;;;;7.72;5.43;;;;;;;9.67;38.59;97325.22;10329328;28;20025;-48
2024/01/06 00:42:19;;;;;;;6.93;6.22;;;;;;;10.04;38.37;97317.25;10326346;28;20109;-50
2024/01/06 00:47:18;;;;;;;11.48;9.82;;;;;;;9.98;40.38;97281.88;10325754;28;20032;-48
2024/01/06 00:52:17;;;;;;;11.90;8.98;;;;;;;10.06;41.26;97310.34;10326074;28;20071;-51
2024/01/06 00:57:16;;;;;;;10.88;8.82;;;;;;;9.81;41.93;97308.75;10325906;28;20065;-50
2024/01/06 01:02:14;;;;;;;9.10;7.38;;;;;;;9.03;41.69;97229.63;10322111;28;20432;-49
2024/01/06 01:07:13;;;;;;;7.80;6.60;;;;;;;9.49;41.17;97328.75;10324912;28;20120;-47
2024/01/06 01:12:12;;;;;;;25.45;19.55;;;;;;;9.56;41.15;97299.38;10325512;28;20060;-50
2024/01/06 01:17:11;;;;;;;18.45;14.77;;;;;;;9.53;41.32;97291.59;10322877;28;20034;-49
2024/01/06 01:22:10;;;;;;;7.75;5.80;;;;;;;9.25;41.38;97308.06;10319649;28;20556;-49
2024/01/06 01:27:09;;;;;;;9.32;7.60;;;;;;;9.12;41.65;97304.66;10322782;28;20056;-51
2024/01/06 01:32:08;;;;;;;9.10;7.75;;;;;;;9.21;42.19;97324.47;10322293;28;20056;-50
2024/01/06 01:37:07;;;;;;;11.05;8.60;;;;;;;9.13;41.50;97307.22;10321982;28;20047;-48
2024/01/06 01:42:06;;;;;;;9.75;8.55;;;;;;;8.92;41.59;97274.50;10323573;28;20124;-48
2024/01/06 01:47:07;;;;;;;6.03;4.93;;;;;;;8.87;40.78;97290.91;10321626;28;20426;-48
2024/01/06 01:52:06;;;;;;;;;;;;;;;9.12;39.91;97315.03;10322523;28;20057;-51
2024/01/06 01:57:04;;;;;;;5.68;5.10;;;;;;;9.22;39.67;97283.06;10322407;28;19948;-49
2024/01/06 02:02:04;;;;;;;5.88;5.38;;;;;;;9.38;39.19;97258.00;10318798;28;20040;-49
2024/01/06 02:07:03;;;;;;;7.07;4.90;;;;;;;9.35;39.36;97227.81;10322710;28;20064;-48
2024/01/06 02:12:02;;;;;;;5.72;5.00;;;;;;;9.93;38.84;97256.84;10321632;28;20065;-48
2024/01/06 02:17:01;;;;;;;8.50;4.90;;;;;;;10.03;38.46;97244.66;10320990;28;20116;-48
2024/01/06 02:22:00;;;;;;;5.40;4.93;;;;;;;10.11;38.26;97256.72;10321125;28;20119;-48
2024/01/06 02:26:59;;;;;;;5.75;5.20;;;;;;;10.31;37.25;97263.50;10321318;28;20041;-50
2024/01/06 02:31:58;;;;;;;6.07;5.63;;;;;;;10.16;38.32;97226.41;10320676;28;20043;-49
2024/01/06 02:36:57;;;;;;;5.88;4.93;;;;;;;10.37;37.92;97246.13;10320019;28;20583;-51
2024/01/06 02:41:56;;;;;;;5.28;4.88;;;;;;;10.47;38.01;97261.63;10321230;28;20479;-49
2024/01/06 02:46:55;;;;;;;6.20;5.70;;;;;;;10.38;38.07;97232.31;10320763;28;20531;-50
2024/01/06 02:51:54;;;;;;;5.75;5.25;;;;;;;10.42;37.99;97240.91;10319218;28;20543;-50
2024/01/06 02:56:53;;;;;;;5.40;5.00;;;;;;;10.41;37.78;97236.59;10321850;28;20946;-48
2024/01/06 03:01:52;;;;;;;6.00;5.40;;;;;;;10.56;38.38;97236.44;10328355;28;20402;-49
2024/01/06 03:06:53;;;;;;;5.20;4.70;;;;;;;10.58;37.79;97231.25;10328233;28;20025;-48
2024/01/06 03:11:52;;;;;;;6.38;5.57;;;;;;;10.48;37.69;97198.50;10328003;28;20140;-48
2024/01/06 03:16:51;;;;;;;8.15;6.95;;;;;;;10.10;39.21;97185.00;10327686;28;20037;-48
2024/01/06 03:21:50;;;;;;;9.60;7.20;;;;;;;9.47;41.83;97205.31;10327663;28;20041;-48
2024/01/06 03:26:49;;;;;;;7.68;6.88;;;;;;;8.72;42.73;97152.97;10327893;28;20116;-48
2024/01/06 03:31:48;;;;;;;8.25;7.13;;;;;;;8.80;43.35;97190.88;10326957;28;20647;-47
2024/01/06 03:36:47;;;;;;;13.20;7.82;;;;;;;8.70;43.75;97215.94;10327830;28;20072;-48
2024/01/06 03:41:48;;;;;;;8.77;7.35;;;;;;;8.61;44.26;97226.28;10327183;28;20037;-47
2024/01/06 03:46:47;;;;;;;11.95;7.22;;;;;;;8.48;44.36;97203.03;10326464;28;20124;-48
2024/01/06 03:51:46;;;;;;;7.82;6.88;;;;;;;8.35;44.26;97169.44;10326914;28;20057;-48
2024/01/06 03:56:45;;;;;;;8.07;6.35;;;;;;;8.63;43.76;97220.25;10326484;28;20163;-48
2024/01/06 04:01:44;;;;;;;7.97;6.00;;;;;;;8.54;44.17;97214.22;10326670;28;20629;-50
2024/01/06 04:06:43;;;;;;;11.40;9.40;;;;;;;8.26;44.46;97180.66;10325830;28;20886;-48
2024/01/06 04:11:42;;;;;;;12.45;8.88;;;;;;;8.36;44.83;97218.53;10324968;28;20108;-50
2024/01/06 04:16:40;;;;;;;5.88;5.38;;;;;;;8.26;43.82;97217.69;10325783;28;20049;-49
2024/01/06 04:21:39;;;;;;;5.15;4.75;;;;;;;8.66;42.90;97203.84;10325390;28;20037;-47
2024/01/06 04:26:38;;;;;;;6.03;5.53;;;;;;;9.16;42.51;97220.97;10324733;28;20065;-48
2024/01/06 04:31:37;;;;;;;5.32;4.90;;;;;;;9.34;41.54;97202.78;10325122;28;20076;-50
2024/01/06 04:36:36;;;;;;;5.70;5.10;;;;;;;9.65;41.49;97220.75;10324928;28;20130;-49
2024/01/06 04:41:35;;;;;;;5.93;5.43;;;;;;;9.83;40.87;97219.75;10324361;28;20483;-48
2024/01/06 04:46:34;;;;;;;6.10;5.60;;;;;;;10.07;40.63;97210.94;10324059;28;20462;-51
2024/01/06 04:51:33;;;;;;;8.20;6.30;;;;;;;10.16;40.03;97207.41;10322452;28;20117;-50
2024/01/06 04:56:32;;;;;;;6.60;5.85;;;;;;;10.06;40.21;97172.09;10323786;28;20049;-49
2024/01/06 05:01:31;;;;;;;9.95;6.45;;;;;;;10.24;40.07;97189.19;10323850;28;20108;-48
2024/01/06 05:06:30;;;;;;;11.40;9.00;;;;;;;10.13;41.10;97207.47;10323251;28;20131;-51
2024/01/06 05:11:29;;;;;;;14.80;10.05;;;;;;;9.90;41.57;97202.44;10322846;28;20017;-49
2024/01/06 05:16:28;;;;;;;11.82;9.80;;;;;;;9.71;41.96;97210.34;10323176;28;20536;-48
2024/01/06 05:21:27;;;;;;;9.85;7.85;;;;;;;8.27;41.55;97014.34;10321077;28;20029;-47
2024/01/06 05:26:26;;;;;;;9.93;8.32;;;;;;;9.33;42.09;97198.47;10320117;28;20503;-50
2024/01/06 05:31:25;;;;;;;6.95;6.07;;;;;;;9.28;42.67;97200.22;10322063;28;20140;-48
2024/01/06 05:36:24;;;;;;;8.20;7.28;;;;;;;9.50;42.81;97223.41;10322601;28;20037;-48
2024/01/06 05:41:23;;;;;;;6.85;6.25;;;;;;;9.59;42.94;97206.97;10320873;28;20073;-49
2024/01/06 05:46:23;;;;;;;6.53;6.05;;;;;;;9.46;42.23;97185.44;10322466;28;20057;-48
2024/01/06 05:51:23;;;;;;;8.70;6.18;;;;;;;9.16;42.50;97127.78;10321745;28;20120;-50
2024/01/06 05:56:25;;;;;;;11.20;7.40;;;;;;;9.71;42.00;97209.47;10321893;28;20077;-48
2024/01/06 06:01:24;;;;;;;7.40;6.18;;;;;;;9.57;41.53;97187.09;10322002;28;20515;-48
2024/01/06 06:06:23;;;;;;;9.30;6.93;;;;;;;9.86;41.40;97191.22;10321366;28;20073;-49
2024/01/06 06:11:22;;;;;;;5.85;5.20;;;;;;;9.79;40.47;97166.22;10321698;28;20057;-51
2024/01/06 06:16:21;;;;;;;8.40;6.25;;;;;;;9.96;41.05;97163.53;10321682;28;20060;-50
2024/01/06 06:21:20;;;;;;;6.65;5.90;;;;;;;10.07;41.41;97182.41;10320993;28;20148;-50
2024/01/06 06:26:19;;;;;;;9.20;6.10;;;;;;;9.95;40.93;97161.78;10321095;28;20080;-49
2024/01/06 06:31:18;;;;;;;7.10;5.78;;;;;;;9.80;40.72;97149.81;10327900;28;20509;-49
2024/01/06 06:36:17;;;;;;;8.70;6.60;;;;;;;10.01;42.20;97184.22;10334772;28;20905;-50
2024/01/06 06:41:16;;;;;;;9.65;6.57;;;;;;;9.51;41.81;97088.75;10332222;28;20410;-49
2024/01/06 06:46:15;;;;;;;8.70;6.93;;;;;;;9.96;41.83;97155.75;10333657;28;20058;-48
2024/01/06 06:51:14;;;;;;;13.13;8.93;;;;;;;10.07;41.53;97148.72;10333721;28;20120;-51
2024/01/06 06:56:16;;;;;;;13.77;9.65;;;;;;;9.87;41.77;97135.09;10333778;28;20045;-48
2024/01/06 07:01:16;;;;;;;9.38;7.03;;;;;;;10.01;41.89;97130.66;10333742;28;20057;-50
2024/01/06 07:06:15;;;;;;;9.23;7.00;;;;;;;10.10;41.34;97153.91;10338179;28;20131;-48
2024/01/06 07:11:15;;;;;;;;;;;;;;;10.31;41.52;97171.00;10374548;28;20064;-48
2024/01/06 07:16:14;;;;;;;7.07;5.70;;;;;;;10.25;41.49;97154.63;10373115;28;20446;-49
2024/01/06 07:21:13;;;;;;;8.10;5.93;;;;;;;10.44;41.17;97145.78;10373119;28;20501;-49
2024/01/06 07:26:12;;;;;;;8.30;5.72;;;;;;;10.37;41.39;97121.63;10374048;28;20070;-51
2024/01/06 07:31:11;;;;;;;9.35;7.75;;;;;;;10.74;41.06;97174.88;10374571;28;20048;-49
2024/01/06 07:36:10;;;;;;;14.73;9.95;;;;;;;10.60;42.26;97152.53;10374921;28;20115;-48
2024/01/06 07:41:09;;;;;;;13.30;9.65;;;;;;;10.88;42.91;97183.41;10344399;28;20131;-48
2024/01/06 07:46:09;;;;;;;14.35;11.68;;;;;;;10.54;42.71;97121.47;10367455;28;20024;-49
2024/01/06 07:51:08;;;;;;;19.58;12.25;;;;;;;10.81;43.75;97177.38;10367706;28;20131;-48
2024/01/06 07:56:07;;;;;;;36.33;20.92;;;;;;;10.50;43.88;97087.81;10367176;28;20447;-51
2024/01/06 08:01:06;;;;;;;;;;;;;;;10.87;42.81;97155.75;10366529;28;20076;-49
2024/01/06 08:06:06;;;;;;;57.28;36.85;;;;;;;10.61;44.59;97149.06;10367525;28;19994;-50
2024/01/06 08:11:04;;;;;;;46.58;29.52;;;;;;;10.55;43.96;97137.91;10366362;28;20067;-51
2024/01/06 08:16:05;;;;;;;34.55;24.40;;;;;;;10.56;44.29;97156.03;10365786;28;20028;-49
2024/01/06 08:21:04;;;;;;;39.90;25.55;;;;;;;10.78;44.60;97166.19;10366464;28;20454;-51
2024/01/06 08:26:05;;;;;;;50.13;31.13;;;;;;;10.87;43.92;97153.16;10366519;28;20510;-49
2024/01/06 08:31:04;;;;;;;30.73;20.10;;;;;;;10.79;45.21;97079.66;10365198;28;20466;-50
2024/01/06 08:36:03;;;;;;;56.63;44.17;;;;;;;10.95;43.04;97075.16;10364268;28;20459;-48
2024/01/06 08:41:02;;;;;;;;;;;;;;;11.53;43.63;97143.63;10364711;28;20052;-48
2024/01/06 08:46:02;;;;;;;46.13;30.20;;;;;;;11.51;42.86;97122.00;10365707;28;19917;-51
2024/01/06 08:51:01;;;;;;;35.00;24.13;;;;;;;11.66;42.94;97148.59;10365625;28;20068;-50
2024/01/06 08:56:00;;;;;;;24.70;19.17;;;;;;;11.74;43.10;97143.28;10363410;28;20064;-49
2024/01/06 09:00:59;;;;;;;;;;;;;;;11.57;43.86;97134.88;10364312;28;20120;-49
2024/01/06 09:05:58;;;;;;;64.27;42.03;;;;;;;11.55;44.27;97124.53;10365192;28;20350;-51
2024/01/06 09:10:58;;;;;;;76.57;47.10;;;;;;;11.31;45.17;97089.34;10364204;28;20052;-48
2024/01/06 09:15:57;;;;;;;29.33;21.52;;;;;;;11.29;44.82;97074.69;10364031;28;20057;-49
2024/01/06 09:20:56;;;;;;;43.15;31.48;;;;;;;11.53;44.59;97102.06;10364207;28;20044;-51
2024/01/06 09:25:55;;;;;;;96.68;68.53;;;;;;;11.73;44.15;97112.97;10363361;28;20438;-50
2024/01/06 09:30:55;;;;;;;39.95;28.50;;;;;;;11.87;43.19;97105.81;10363195;28;20120;-50
2024/01/06 09:35:54;;;;;;;37.78;24.85;;;;;;;11.56;42.20;97031.84;10362171;28;20593;-52
2024/01/06 09:40:55;;;;;;;31.20;20.08;;;;;;;12.01;41.18;97070.91;10362623;28;20510;-50
2024/01/06 09:46:17;;;;;;;20.98;13.70;;;;;;;12.03;41.17;97069.16;10363499;28;20056;-50
2024/01/06 09:51:19;;;;;;;19.55;14.02;;;;;;;12.27;40.24;97062.63;10361283;28;20115;-48
2024/01/06 09:56:18;;;;;;;19.33;11.82;;;;;;;12.44;39.98;97024.19;10362807;28;20466;-50
2024/01/06 10:01:20;;;;;;;15.98;11.40;;;;;;;12.82;39.40;97048.56;10362213;28;20056;-50
2024/01/06 10:06:20;;;;;;;14.52;9.13;;;;;;;13.05;39.84;97045.47;10362208;28;20065;-50
2024/01/06 10:11:21;;;;;;;9.32;7.57;;;;;;;12.97;38.78;97023.91;10361913;28;20127;-49
2024/01/06 10:16:22;;;;;;;12.88;9.18;;;;;;;13.18;38.32;97029.53;10361792;28;20049;-49
2024/01/06 10:21:22;;;;;;;12.85;10.82;;;;;;;13.55;38.62;97040.00;10362665;28;20057;-48
2024/01/06 10:26:21;;;;;;;16.77;11.73;;;;;;;13.69;37.78;97029.22;10361421;28;20076;-48
2024/01/06 10:31:20;;;;;;;18.13;11.80;;;;;;;14.07;38.21;97016.94;10359194;28;20480;-49
2024/01/06 10:36:19;;;;;;;17.02;13.43;;;;;;;14.10;37.61;96975.09;10361426;28;20583;-50
2024/01/06 10:41:19;;;;;;;;;;;;;;;14.14;37.70;96995.00;10362789;28;20072;-51
2024/01/06 10:46:19;;;;;;;17.57;13.07;;;;;;;14.31;37.45;97000.63;10361462;28;20421;-50
2024/01/06 10:51:19;;;;;;;15.15;12.23;;;;;;;14.46;38.23;96996.72;10359772;28;20123;-48
2024/01/06 10:56:19;;;;;;;10.02;7.65;;;;;;;13.07;38.70;96811.88;10360594;28;20068;-49
2024/01/06 11:01:24;;;;;;;8.85;6.93;;;;;;;13.35;38.76;96790.25;10358580;28;20709;-49
2024/01/06 11:06:23;;;;;;;7.20;6.50;;;;;;;14.11;39.26;96885.53;10357467;28;20156;-51
2024/01/06 11:11:23;;;;;;;7.03;6.20;;;;;;;14.48;39.29;96921.81;10358868;28;20060;-49
2024/01/06 11:16:48;;;;;;;8.25;7.28;;;;;;;14.88;38.46;96951.13;10360174;28;20072;-49
2024/01/06 11:21:47;;;;;;;8.32;7.43;;;;;;;14.43;39.85;96912.41;10362349;28;20589;-49
2024/01/06 11:26:51;;;;;;;6.97;6.00;;;;;;;14.59;39.53;96947.59;10366720;28;20025;-50
2024/01/06 11:32:42;;;;;;;9.52;6.05;;;;;;;14.63;39.11;96923.09;10367245;28;20056;-48
2024/01/06 11:37:41;;;;;;;6.97;6.22;;;;;;;14.56;39.66;96914.59;10348593;28;20072;-49
2024/01/06 11:42:47;;;;;;;9.88;8.38;;;;;;;14.57;39.71;96905.03;10368948;28;20102;-49
2024/01/06 11:47:48;;;;;;;9.77;6.22;;;;;;;14.45;39.85;96905.38;10365975;28;20056;-49
2024/01/06 11:52:47;;;;;;;104.68;70.70;;;;;;;14.12;40.21;96830.66;10364527;28;20057;-48
2024/01/06 11:57:47;;;;;;;;;;;;;;;14.35;40.55;96890.00;10363107;28;20029;-49
2024/01/06 12:02:46;;;;;;;6.90;6.20;;;;;;;14.29;40.59;96874.53;10363201;28;19947;-48
2024/01/06 12:07:54;;;;;;;7.18;6.22;;;;;;;14.24;41.46;96881.66;10361158;28;20056;-48
2024/01/06 12:13:00;;;;;;;7.80;6.57;;;;;;;14.20;41.96;96870.44;10363877;28;20071;-48
2024/01/06 12:18:02;;;;;;;7.05;6.20;;;;;;;14.62;41.18;96877.03;10362022;28;20068;-48
2024/01/06 12:23:05;;;;;;;7.28;6.25;;;;;;;14.77;40.36;96839.13;10360479;28;20073;-48
2024/01/06 12:28:05;;;;;;;7.75;6.95;;;;;;;15.28;39.89;96846.16;10359933;28;20131;-49
2024/01/06 12:33:04;;;;;;;8.32;6.20;;;;;;;15.39;39.55;96853.63;10355212;28;20115;-52
2024/01/06 12:38:07;;;;;;;;;;;;;;;15.38;38.78;96852.75;10361240;28;20029;-51
2024/01/06 12:43:05;;;;;;;6.57;5.97;;;;;;;15.37;38.90;96842.38;10366794;28;20104;-51
2024/01/06 12:48:04;;;;;;;;;;;;;;;15.46;38.63;96829.81;10368395;28;20021;-49
2024/01/06 12:53:03;;;;;;;29.80;22.33;;;;;;;15.33;38.47;96786.72;10366877;28;19923;-49
2024/01/06 12:58:03;;;;;;;;;;;;;;;15.69;38.51;96833.38;10365718;28;20061;-51
2024/01/06 13:03:02;;;;;;;12.60;10.30;;;;;;;15.38;39.01;96804.84;10364451;28;19962;-49
2024/01/06 13:08:02;;;;;;;10.88;8.80;;;;;;;15.20;39.03;96783.69;10365349;28;20449;-50
2024/01/06 13:13:02;;;;;;;9.10;8.20;;;;;;;15.25;39.34;96804.44;10365074;28;20522;-49
2024/01/06 13:18:01;;;;;;;13.77;9.63;;;;;;;15.25;39.39;96797.44;10363973;28;20044;-50
2024/01/06 13:23:00;;;;;;;9.98;8.98;;;;;;;14.87;39.42;96784.84;10364384;28;20072;-50
2024/01/06 13:27:59;;;;;;;;;;;;;;;15.13;39.49;96820.53;10363746;28;20148;-51
2024/01/06 13:32:59;;;;;;;13.20;11.40;;;;;;;14.85;39.89;96761.41;10361393;28;20011;-51
2024/01/06 13:37:58;;;;;;;17.10;12.07;;;;;;;14.63;40.17;96732.50;10360344;28;20200;-49
2024/01/06 13:42:57;;;;;;;;;;;;;;;15.22;39.39;96818.47;10363749;28;20025;-49
2024/01/06 13:47:56;;;;;;;16.33;12.30;;;;;;;15.17;38.99;96781.16;10362914;28;20027;-50
2024/01/06 13:52:56;;;;;;;14.88;12.20;;;;;;;15.50;37.99;96808.78;10362530;28;20032;-50
2024/01/06 13:57:55;;;;;;;14.52;11.27;;;;;;;15.85;38.23;96807.53;10360998;28;20454;-48
2024/01/06 14:02:54;;;;;;;;;;;;;;;15.68;38.70;96798.50;10363182;28;20502;-48
2024/01/06 14:07:54;;;;;;;19.23;14.55;;;;;;;15.79;38.45;96810.41;10361249;28;19924;-50
2024/01/06 14:12:53;;;;;;;19.73;13.95;;;;;;;15.53;38.32;96772.06;10361590;28;20502;-48
2024/01/06 14:17:52;;;;;;;21.55;15.48;;;;;;;15.55;38.46;96793.78;10358841;28;20455;-51
2024/01/06 14:22:51;;;;;;;23.42;16.42;;;;;;;15.20;38.47;96748.84;10361037;28;20076;-50
2024/01/06 14:27:50;;;;;;;;;;;;;;;15.14;38.95;96790.91;10360699;28;20108;-48
2024/01/06 14:32:51;;;;;;;63.17;49.75;;;;;;;14.79;39.78;96785.94;10359732;28;20007;-48
2024/01/06 14:37:50;;;;;;;25.38;19.30;;;;;;;14.50;40.55;96794.72;10358285;28;20069;-48
2024/01/06 14:42:49;;;;;;;17.42;13.30;;;;;;;14.27;40.76;96795.44;10361818;28;20099;-47
2024/01/06 14:47:50;;;;;;;21.55;14.82;;;;;;;13.77;41.16;96737.81;10360317;28;20043;-48
2024/01/06 14:52:49;;;;;;;17.17;13.30;;;;;;;13.97;41.12;96790.25;10365316;28;20052;-48
2024/01/06 14:57:48;;;;;;;13.60;10.02;;;;;;;13.67;42.84;96776.34;10369298;28;20039;-50
2024/01/06 15:02:47;;;;;;;7.68;6.88;;;;;;;13.37;43.59;96757.19;10369858;28;20044;-48
2024/01/06 15:07:46;;;;;;;9.20;6.57;;;;;;;13.29;44.16;96754.81;10368907;28;20037;-47
2024/01/06 15:12:45;;;;;;;7.85;7.10;;;;;;;13.15;44.85;96768.22;10369358;28;20479;-48
2024/01/06 15:17:44;;;;;;;7.60;6.22;;;;;;;12.88;45.39;96777.63;10368329;28;20089;-49
2024/01/06 15:22:44;;;;;;;10.40;7.20;;;;;;;12.78;45.92;96764.88;10368695;28;20037;-47
2024/01/06 15:27:42;;;;;;;8.15;7.35;;;;;;;12.81;45.72;96770.00;10367983;28;20060;-48
2024/01/06 15:32:42;;;;;;;10.98;8.20;;;;;;;12.62;46.12;96751.41;10368590;28;20035;-48
2024/01/06 15:37:41;;;;;;;9.55;7.70;;;;;;;12.50;46.26;96742.16;10368351;28;20071;-48
2024/01/06 15:42:40;;;;;;;11.95;8.38;;;;;;;12.47;46.54;96750.03;10367990;28;20065;-48
2024/01/06 15:47:39;;;;;;;10.50;8.73;;;;;;;12.40;46.74;96756.28;10366813;28;20115;-49
2024/01/06 15:52:38;;;;;;;13.30;10.15;;;;;;;12.42;46.58;96760.56;10368179;28;20056;-48
2024/01/06 15:57:38;;;;;;;14.10;10.15;;;;;;;12.36;46.63;96754.66;10367314;28;20028;-49
2024/01/06 16:02:38;;;;;;;11.80;9.02;;;;;;;12.29;46.66;96759.13;10366464;28;20075;-48
2024/01/06 16:07:37;;;;;;;12.35;8.73;;;;;;;11.75;47.53;96695.34;10357910;28;20128;-49
2024/01/06 16:12:39;;;;;;;9.65;7.38;;;;;;;11.84;48.15;96731.53;10366407;28;20040;-50
2024/01/06 16:17:37;;;;;;;7.82;6.70;;;;;;;11.66;48.42;96712.00;10365479;28;20124;-50
2024/01/06 16:22:36;;;;;;;8.57;6.93;;;;;;;11.77;48.02;96718.72;10367683;28;20140;-48
2024/01/06 16:27:35;;;;;;;10.40;7.75;;;;;;;11.10;49.00;96632.69;10364894;28;20033;-48
2024/01/06 16:32:34;;;;;;;10.63;8.80;;;;;;;11.44;49.16;96698.63;10368625;28;20376;-49
2024/01/06 16:37:33;;;;;;;10.50;7.72;;;;;;;11.51;49.12;96719.28;10366019;28;20037;-50
2024/01/06 16:42:32;;;;;;;9.15;8.00;;;;;;;11.39;49.22;96697.88;10366437;28;20040;-50
2024/01/06 16:47:31;;;;;;;25.02;15.90;;;;;;;11.44;49.87;96697.78;10364782;28;20552;-50
2024/01/06 16:52:30;;;;;;;32.45;21.85;;;;;;;11.36;50.01;96691.88;10365430;28;20545;-50
2024/01/06 16:57:31;;;;;;;42.42;28.90;;;;;;;11.25;50.20;96664.41;10365804;28;20678;-49
2024/01/06 17:02:30;;;;;;;26.73;18.98;;;;;;;11.07;49.87;96661.34;10362824;28;20044;-50
2024/01/06 17:07:29;;;;;;;32.63;21.77;;;;;;;11.08;50.42;96671.69;10365042;28;20536;-49
2024/01/06 17:12:28;;;;;;;19.10;13.52;;;;;;;10.81;50.06;96652.28;10362669;28;20449;-49
2024/01/06 17:17:27;;;;;;;;;;;;;;;10.92;50.67;96685.88;10361763;28;20068;-51
2024/01/06 17:22:26;;;;;;;28.35;18.98;;;;;;;10.62;51.49;96655.25;10365182;28;19916;-49
2024/01/06 17:27:25;;;;;;;37.63;29.92;;;;;;;10.36;51.81;96654.88;10361531;28;20120;-50
2024/01/06 17:32:24;;;;;;;;;;;;;;;10.40;52.83;96677.25;10364663;28;20063;-52
2024/01/06 17:37:23;;;;;;;28.65;19.25;;;;;;;10.54;52.15;96672.69;10363633;28;20035;-50
2024/01/06 17:42:24;;;;;;;25.20;19.25;;;;;;;10.59;51.93;96641.50;10362074;28;20032;-49
2024/01/06 17:47:23;;;;;;;21.67;17.23;;;;;;;10.61;52.31;96674.28;10361886;28;20128;-51
2024/01/06 17:52:25;;;;;;;32.08;24.15;;;;;;;10.56;52.89;96668.31;10363349;28;20037;-51
2024/01/06 17:57:24;;;;;;;28.70;21.83;;;;;;;10.46;52.91;96666.78;10363344;28;20061;-49
2024/01/06 18:02:24;;;;;;;20.25;16.10;;;;;;;10.32;52.74;96669.63;10359425;28;20144;-48
2024/01/06 18:07:24;;;;;;;13.75;9.55;;;;;;;10.27;52.75;96648.09;10362522;28;20914;-50
2024/01/06 18:12:23;;;;;;;19.48;13.05;;;;;;;10.12;53.57;96625.03;10362339;28;20115;-51
2024/01/06 18:17:22;;;;;;;25.95;15.40;;;;;;;9.91;53.17;96608.09;10361890;28;20033;-49
2024/01/06 18:22:22;;;;;;;18.98;13.73;;;;;;;10.10;54.24;96622.47;10362199;28;20041;-51
2024/01/06 18:27:20;;;;;;;;;;;;;;;10.04;54.28;96627.75;10361958;28;20053;-49
2024/01/06 18:32:19;;;;;;;11.82;10.05;;;;;;;10.12;54.32;96618.13;10360859;28;19962;-49
2024/01/06 18:37:18;;;;;;;16.42;12.40;;;;;;;9.81;54.48;96567.69;10362174;28;20029;-51
2024/01/06 18:42:22;;;;;;;15.40;11.70;;;;;;;9.86;55.38;96576.25;10361963;28;20064;-49
2024/01/06 18:47:21;;;;;;;16.90;12.73;;;;;;;9.93;55.25;96567.47;10360046;28;20123;-49
2024/01/06 18:52:20;;;;;;;37.03;26.33;;;;;;;10.03;54.86;96584.59;10361279;28;20039;-49
2024/01/06 18:57:19;;;;;;;20.90;15.85;;;;;;;9.99;55.13;96577.75;10361855;28;20467;-51
2024/01/06 19:02:18;;;;;;;20.25;16.02;;;;;;;10.11;54.93;96559.38;10359857;28;20508;-51
2024/01/06 19:07:18;;;;;;;23.95;15.82;;;;;;;10.08;54.81;96566.38;10360189;28;20462;-51
2024/01/06 19:12:17;;;;;;;14.35;11.80;;;;;;;9.90;55.49;96539.03;10361719;28;20489;-49
2024/01/06 19:17:16;;;;;;;13.73;11.00;;;;;;;9.89;55.22;96542.53;10359976;28;20678;-52
2024/01/06 19:22:15;;;;;;;17.67;12.60;;;;;;;9.44;56.15;96460.41;10360549;28;20048;-50
2024/01/06 19:27:14;;;;;;;12.45;8.10;;;;;;;9.76;56.09;96516.81;10360402;28;20021;-50
2024/01/06 19:32:15;;;;;;;6.47;5.53;;;;;;;9.91;56.78;96507.03;10359838;28;20069;-51
2024/01/06 19:37:14;;;;;;;20.45;12.13;;;;;;;10.02;56.09;96479.19;10361396;28;20056;-50
2024/01/06 19:42:13;;;;;;;9.65;6.45;;;;;;;10.17;55.86;96484.09;10368335;28;20053;-51
2024/01/06 19:47:12;;;;;;;7.28;6.00;;;;;;;10.29;55.82;96474.38;10367539;28;20072;-50
2024/01/06 19:52:11;;;;;;;7.53;4.47;;;;;;;10.38;55.56;96448.25;10367056;28;20059;-49
2024/01/06 19:57:10;;;;;;;32.83;22.92;;;;;;;10.58;54.82;96474.59;10367212;28;20049;-51
2024/01/06 20:02:09;;;;;;;57.50;36.97;;;;;;;10.45;54.60;96470.56;10366971;28;20045;-51
2024/01/06 20:07:08;;;;;;;34.20;24.00;;;;;;;10.30;55.30;96450.13;10367026;28;20021;-50
2024/01/06 20:12:07;;;;;;;62.13;38.50;;;;;;;9.93;56.66;96456.03;10367135;28;20037;-50
2024/01/06 20:17:09;;;;;;;39.83;26.35;;;;;;;9.75;56.36;96416.66;10367247;28;20056;-51
2024/01/06 20:22:08;;;;;;;27.17;16.85;;;;;;;9.70;56.97;96407.25;10364444;28;20843;-48
2024/01/06 20:27:07;;;;;;;18.63;12.77;;;;;;;9.96;56.60;96394.66;10367099;28;20077;-52
2024/01/06 20:32:06;;;;;;;33.50;22.13;;;;;;;10.14;56.24;96396.03;10365654;28;20122;-49
2024/01/06 20:37:05;;;;;;;32.08;20.60;;;;;;;10.28;56.04;96389.66;10366262;28;20067;-50
2024/01/06 20:42:04;;;;;;;34.45;20.42;;;;;;;9.87;56.21;96311.94;10366272;28;20041;-51
2024/01/06 20:47:04;;;;;;;26.75;17.38;;;;;;;10.18;56.38;96399.38;10363822;28;20079;-50
2024/01/06 20:52:04;;;;;;;22.80;15.32;;;;;;;9.62;56.42;96287.44;10365950;28;20465;-51
2024/01/06 20:57:04;;;;;;;33.90;24.45;;;;;;;9.64;56.24;96317.59;10366178;28;20486;-50
2024/01/06 21:02:03;;;;;;;28.73;20.92;;;;;;;9.77;56.84;96338.94;10364130;28;20068;-49
2024/01/06 21:07:03;;;;;;;54.70;33.63;;;;;;;9.85;56.47;96352.56;10365253;28;20111;-49
2024/01/06 21:12:03;;;;;;;40.58;23.45;;;;;;;9.84;56.86;96342.22;10365234;28;20049;-51
2024/01/06 21:17:02;;;;;;;48.28;26.88;;;;;;;9.86;57.19;96368.97;10364650;28;20083;-49
2024/01/06 21:22:01;;;;;;;38.42;24.58;;;;;;;9.55;57.58;96304.81;10363977;28;20069;-51
2024/01/06 21:27:00;;;;;;;47.17;29.33;;;;;;;8.54;57.45;96133.44;10364032;28;20045;-47
2024/01/06 21:31:59;;;;;;;29.15;18.85;;;;;;;9.68;57.90;96314.06;10362971;28;20057;-47
2024/01/06 21:36:59;;;;;;;33.15;20.40;;;;;;;9.65;58.11;96328.78;10363811;28;20043;-47
2024/01/06 21:41:58;;;;;;;31.27;17.10;;;;;;;9.55;58.45;96291.88;10363361;28;20067;-49
2024/01/06 21:46:57;;;;;;;25.27;16.52;;;;;;;9.55;58.46;96302.25;10361490;28;20068;-49
2024/01/06 21:51:56;;;;;;;21.45;15.73;;;;;;;9.35;58.54;96251.72;10361145;28;20111;-47
2024/01/06 21:56:54;;;;;;;47.03;29.83;;;;;;;9.76;58.38;96257.75;10363594;28;20096;-47
2024/01/06 22:01:53;;;;;;;36.10;27.15;;;;;;;9.54;58.82;96238.41;10362280;28;20151;-49
2024/01/06 22:06:52;;;;;;;40.28;25.75;;;;;;;9.92;57.39;96284.19;10362480;28;20072;-49
2024/01/06 22:11:51;;;;;;;35.25;21.50;;;;;;;9.80;57.88;96266.31;10362380;28;20163;-50
2024/01/06 22:16:50;;;;;;;34.80;23.02;;;;;;;10.06;57.42;96272.66;10363063;28;20024;-51
2024/01/06 22:21:49;;;;;;;30.25;20.15;;;;;;;9.83;57.93;96240.34;10361503;28;20048;-49
2024/01/06 22:26:48;;;;;;;21.98;13.77;;;;;;;9.42;57.82;96150.59;10361695;28;20040;-49
2024/01/06 22:31:47;;;;;;;19.27;13.65;;;;;;;9.94;57.51;96240.09;10362053;28;20048;-48
2024/01/06 22:36:47;;;;;;;;;;;;;;;10.02;57.47;96258.91;10362662;28;20060;-51
2024/01/06 22:41:47;;;;;;;27.83;17.55;;;;;;;9.88;58.24;96227.28;10362383;28;20366;-49
2024/01/06 22:46:46;;;;;;;25.60;18.15;;;;;;;9.77;58.30;96233.56;10359958;28;20120;-51
2024/01/06 22:51:45;;;;;;;30.23;17.45;;;;;;;9.63;58.98;96233.03;10361433;28;20029;-49
2024/01/06 22:56:44;;;;;;;21.67;14.27;;;;;;;9.52;58.72;96214.25;10361920;28;20934;-51
2024/01/06 23:01:43;;;;;;;19.77;12.20;;;;;;;9.54;59.53;96212.50;10362137;28;20025;-49
2024/01/06 23:06:42;;;;;;;10.25;8.10;;;;;;;9.72;58.08;96173.25;10359161;28;20383;-50
2024/01/06 23:11:42;;;;;;;18.70;11.93;;;;;;;9.97;58.62;96194.22;10354749;28;20108;-48